AirNav   Pilot Hours Calculator
 
 885 users online  

84CO Rampart Heliport
Castle Rock, Colorado, USA

GOING TO CASTLE ROCK?


FAA INFORMATION EFFECTIVE 31 DECEMBER 2020

Location

FAA Identifier: 84CO
Lat/Long: 39-20-39.2600N 104-50-30.8600W
39-20.654333N 104-50.514333W
39.3442389,-104.8419056
(estimated)
Elevation: 6480 ft. / 1975 m (estimated)
From city: 2 miles NW of CASTLE ROCK, CO
Time zone: UTC -7 (UTC -6 during Daylight Saving Time)
Zip code: 80109

Heliport Operations

Heliport use: Private use. Permission required prior to landing
Activation date: 08/2009
Control tower: no
ARTCC: DENVER CENTER
FSS: DENVER FLIGHT SERVICE STATION
Attendance: UNATNDD
Segmented circle: no

Heliport Communications

WX ASOS at APA (14 nm N): PHONE 720-873-2799

Nearby radio navigation aids

VOR radial/distance  VOR name  Freq  Var
FQFr195/23.1FALCON VORTAC116.3011E
BRKr330/25.9BLACK FOREST VOR/DME112.5008E
DENr189/29.3DENVER VOR/DME117.9008E
DVVr189/34.5MILE HIGH VORTAC114.7008E
BJCr147/36.8JEFFCO VOR/DME115.4011E

Heliport Services

Runway Information

Helipad H1

Dimensions: 40 x 40 ft. / 12 x 12 m
Surface: concrete
Traffic pattern: leftleft

Heliport Ownership and Management from official FAA records

Ownership: Privately-owned
Owner: JEFF ARMSTRONG
1251 HAYSTACK DR
CASTLE ROCK, CO 80104
Phone 303-663-8472
Manager: JEFF ARMSTRONG
1251 HAYSTACK DR
CASTLE ROCK, CO 80104
Phone 303-663-8472

Heliport Operational Statistics

Aircraft based on the field: 1
Helicopters: 1
    

Additional Remarks

OWNER DESIRES ARPT NOT BE CHARTED.
FOR CD CTC DENVER APCH AT 303-342-1916.

Instrument Procedures

There are no published instrument procedures at 84CO.

Some nearby airports with instrument procedures:

KAPA - Centennial Airport (14 nm N)
KBKF - Buckley Air Force Base (22 nm N)
KCFO - Colorado Air and Space Port Airport (30 nm NE)
KDEN - Denver International Airport (32 nm N)
KCOS - City of Colorado Springs Municipal Airport (33 nm S)
 
Loc | Ops | Rwys | IFR | FBO | Links
Com | Nav | Svcs | Stats | Notes

AirBoss

 
Aerial photo
No photo
 
Sectional chart

 
Airport distance calculator
Flying to Rampart Heliport? Find the distance to fly.

From to 84CO

Sunrise and sunset
Times for 15-Jan-2021
 Local
(UTC-7)
 Zulu
(UTC)
Morning civil twilight06:4913:49
Sunrise07:1914:19
Sunset16:5923:59
Evening civil twilight17:2900:29

Current date and time
Zulu (UTC)  16-Jan-2021 04:01:35
Local (UTC-7)  15-Jan-2021 21:01:35
 
METAR
KMNH 
12nm SE 
160355Z AUTO 22008KT 10SM CLR M04/M15 A3009 RMK AO2
KAPA 
13nm N 
160353Z 19006KT 10SM FEW140 M01/M14 A3004 RMK AO2 SLP210 T10111139
KAFF 
23nm S 
160358Z AUTO 35006KT 10SM CLR M07/M14 A3008 RMK AO2 SLP236 T10731136 $
KBKF 
23nm N 
160258Z 18009KT 10SM FEW110 FEW220 M03/M12 A3007 RMK AO2A SLP219 T10271122 58007
TAF
KAPA 
13nm N 
152058Z 1521/1618 12006KT P6SM FEW100 SCT220 FM160000 03006KT P6SM SCT220 FM160300 17007KT P6SM SCT140 BKN220 FM160600 20007KT P6SM FEW140 BKN220 FM161500 08005KT P6SM SCT030 OVC060
NOTAMs
Click for the latest NOTAMs
NOTAMs are issued by the DoD/FAA and will open in a separate window not controlled by AirNav.

 

 
 

Would you like to see your business listed on this page?

 If your business provides an interesting product or service to pilots, flight crews, aircraft, or users of the Rampart Heliport, you should consider listing it here.  To start the listing process, click on the button below
 
Add a business
 

Other Pages about Rampart Heliport

Update a link
 
Copyright © AirNav, LLC. All rights reserved. Privacy Policy  Contact